createdAt,value
2023-01-10T00:00:12.213Z,98440.56
2023-01-10T00:02:41.059Z,98438.06
2023-01-10T00:05:10.473Z,98436.41
2023-01-10T00:07:39.423Z,98436.38
2023-01-10T00:10:10.784Z,98441.47
2023-01-10T00:12:49.612Z,98433.84
2023-01-10T00:15:18.434Z,98438.94
2023-01-10T00:17:47.190Z,98433.91
2023-01-10T00:20:16.418Z,98431.34
2023-01-10T00:22:45.556Z,98437.28
2023-01-10T00:25:15.891Z,98435.59
2023-01-10T00:27:45.492Z,98440.69
2023-01-10T00:30:15.106Z,98440.69
2023-01-10T00:32:44.768Z,98445.78
2023-01-10T00:35:14.237Z,98450.81
2023-01-10T00:37:43.091Z,98454.19
2023-01-10T00:40:13.247Z,98459.28
2023-01-10T00:42:53.275Z,98459.28
2023-01-10T00:45:23.032Z,98461.00
2023-01-10T00:47:51.850Z,98458.47
2023-01-10T00:50:20.839Z,98472.00
2023-01-10T00:52:49.991Z,98469.47
2023-01-10T00:55:18.871Z,98469.47
2023-01-10T00:57:49.099Z,98477.91
2023-01-10T01:00:18.378Z,98484.69
2023-01-10T01:02:48.853Z,98484.72
2023-01-10T01:05:17.753Z,98502.44
2023-01-10T01:07:49.522Z,98507.50
2023-01-10T01:10:29.522Z,98511.75
2023-01-10T01:13:01.746Z,98509.22
2023-01-10T01:15:30.555Z,98522.72
2023-01-10T01:17:59.322Z,98515.97
2023-01-10T01:20:29.381Z,98521.88
2023-01-10T01:22:57.865Z,98532.00
2023-01-10T01:25:26.840Z,98531.16
2023-01-10T01:27:55.663Z,98537.94
2023-01-10T01:30:25.888Z,98543.00
2023-01-10T01:32:54.821Z,98545.53
2023-01-10T01:35:23.814Z,98548.88
2023-01-10T01:37:52.911Z,98554.84
2023-01-10T01:40:23.878Z,98546.38
2023-01-10T01:42:56.124Z,98552.28
2023-01-10T01:45:38.648Z,98545.53
2023-01-10T01:48:18.602Z,98548.06
2023-01-10T01:50:54.665Z,98552.28
2023-01-10T01:53:29.357Z,98550.59
2023-01-10T01:56:02.794Z,98557.34
2023-01-10T01:58:39.600Z,98563.25
2023-01-10T02:01:09.977Z,98565.81
2023-01-10T02:03:39.494Z,98564.94
2023-01-10T02:06:09.013Z,98572.53
2023-01-10T02:08:39.570Z,98577.63
2023-01-10T02:11:11.171Z,98565.81
2023-01-10T02:13:43.272Z,98573.41
2023-01-10T02:16:13.895Z,98568.34
2023-01-10T02:18:44.300Z,98577.63
2023-01-10T02:21:41.986Z,98585.22
2023-01-10T02:24:33.490Z,98587.72
2023-01-10T02:27:28.516Z,98599.56
2023-01-10T02:30:28.437Z,98599.56
2023-01-10T02:33:05.791Z,98601.22
2023-01-10T02:35:55.582Z,98603.78
2023-01-10T02:38:36.999Z,98602.06
2023-01-10T02:41:16.557Z,98608.84
2023-01-10T02:43:48.531Z,98604.63
2023-01-10T02:46:24.795Z,98605.44
2023-01-10T02:48:56.252Z,98609.66
2023-01-10T02:51:27.537Z,98599.53
2023-01-10T02:54:02.461Z,98611.34
2023-01-10T02:57:02.161Z,98613.88
2023-01-10T02:59:55.251Z,98616.41
2023-01-10T03:02:38.524Z,98616.41
2023-01-10T03:05:19.421Z,98621.44
2023-01-10T03:07:58.161Z,98617.22
2023-01-10T03:10:34.016Z,98614.72
2023-01-10T03:13:06.853Z,98613.88
2023-01-10T03:15:39.234Z,98619.75
2023-01-10T03:18:12.992Z,98616.41
2023-01-10T03:20:47.872Z,98615.56
2023-01-10T03:23:18.075Z,98617.25
2023-01-10T03:25:48.497Z,98615.56
2023-01-10T03:28:23.790Z,98614.72
2023-01-10T03:30:56.012Z,98619.75
2023-01-10T03:33:29.193Z,98626.50
2023-01-10T03:36:10.279Z,98621.44
2023-01-10T03:38:47.572Z,98629.88
2023-01-10T03:41:23.973Z,98636.63
2023-01-10T03:44:08.602Z,98637.47
2023-01-10T03:46:43.325Z,98637.50
2023-01-10T03:49:13.823Z,98641.69
2023-01-10T03:51:45.848Z,98648.44
2023-01-10T03:54:17.310Z,98653.50
2023-01-10T03:56:47.713Z,98652.66
2023-01-10T03:59:16.646Z,98650.94
2023-01-10T04:01:45.682Z,98658.53
2023-01-10T04:04:14.639Z,98656.00
2023-01-10T04:06:44.794Z,98672.03
2023-01-10T04:09:13.899Z,98676.25
2023-01-10T04:11:42.560Z,98688.06
2023-01-10T04:14:11.371Z,98693.94
2023-01-10T04:16:40.094Z,98697.34
2023-01-10T04:19:09.023Z,98702.41
2023-01-10T04:21:37.700Z,98704.09
2023-01-10T04:24:09.661Z,98712.50
2023-01-10T04:26:38.486Z,98714.19
2023-01-10T04:29:07.397Z,98716.72
2023-01-10T04:31:36.294Z,98715.88
2023-01-10T04:34:05.051Z,98720.91
2023-01-10T04:36:33.943Z,98730.19
2023-01-10T04:39:02.654Z,98735.25
2023-01-10T04:41:33.019Z,98737.78
2023-01-10T04:44:01.873Z,98737.78
2023-01-10T04:46:30.524Z,98745.34
2023-01-10T04:48:59.954Z,98744.50
2023-01-10T04:51:29.601Z,98748.75
2023-01-10T04:53:58.372Z,98747.03
2023-01-10T04:56:27.422Z,98758.00
2023-01-10T04:58:58.449Z,98765.56
2023-01-10T05:01:27.612Z,98754.63
2023-01-10T05:03:57.833Z,98773.16
2023-01-10T05:06:26.777Z,98767.25
2023-01-10T05:08:55.449Z,98767.25
2023-01-10T05:11:24.220Z,98778.22
2023-01-10T05:13:53.155Z,98774.81
2023-01-10T05:16:24.532Z,98776.47
2023-01-10T05:18:53.431Z,98779.88
2023-01-10T05:21:22.318Z,98774.81
2023-01-10T05:23:52.101Z,98769.72
2023-01-10T05:26:23.219Z,98772.25
2023-01-10T05:28:52.355Z,98780.72
2023-01-10T05:31:22.811Z,98784.91
2023-01-10T05:33:52.819Z,98787.41
2023-01-10T05:36:22.191Z,98781.53
2023-01-10T05:38:50.910Z,98782.38
2023-01-10T05:41:20.100Z,98786.59
2023-01-10T05:43:48.788Z,98779.84
2023-01-10T05:46:17.805Z,98784.91
2023-01-10T05:48:47.982Z,98782.38
2023-01-10T05:51:16.859Z,98795.03
2023-01-10T05:53:45.563Z,98801.78
2023-01-10T05:56:14.561Z,98808.50
2023-01-10T05:58:44.344Z,98811.88
2023-01-10T06:01:16.331Z,98823.72
2023-01-10T06:03:45.428Z,98821.19
2023-01-10T06:06:15.938Z,98813.59
2023-01-10T06:08:44.774Z,98830.44
2023-01-10T06:11:13.439Z,98830.47
2023-01-10T06:13:42.713Z,98829.63
2023-01-10T06:16:11.453Z,98832.19
2023-01-10T06:18:40.302Z,98836.38
2023-01-10T06:21:08.992Z,98848.22
2023-01-10T06:23:39.597Z,98843.97
2023-01-10T06:26:08.863Z,98850.75
2023-01-10T06:28:37.635Z,98854.94
2023-01-10T06:31:06.721Z,98857.47
2023-01-10T06:33:35.703Z,98867.59
2023-01-10T06:36:04.551Z,98872.66
2023-01-10T06:38:33.263Z,98876.88
2023-01-10T06:41:13.328Z,98881.13
2023-01-10T06:43:42.662Z,98887.03
2023-01-10T06:46:11.404Z,98888.72
2023-01-10T06:48:40.297Z,98892.09
2023-01-10T06:51:09.064Z,98892.91
2023-01-10T06:53:37.894Z,98902.19
2023-01-10T06:56:09.942Z,98908.06
2023-01-10T06:58:39.840Z,98908.06
2023-01-10T07:01:08.597Z,98913.13
2023-01-10T07:03:37.471Z,98921.56
2023-01-10T07:06:10.280Z,98924.97
2023-01-10T07:08:40.034Z,98932.50
2023-01-10T07:11:10.949Z,98936.75
2023-01-10T07:13:40.145Z,98941.81
2023-01-10T07:16:11.546Z,98955.31
2023-01-10T07:18:43.271Z,98958.69
2023-01-10T07:21:12.623Z,98971.34
2023-01-10T07:23:41.477Z,98965.44
2023-01-10T07:26:17.981Z,98977.28
2023-01-10T07:28:46.960Z,98974.75
2023-01-10T07:31:16.668Z,98975.59
2023-01-10T07:33:45.554Z,98980.66
2023-01-10T07:36:14.339Z,98985.72
2023-01-10T07:38:43.237Z,99002.56
2023-01-10T07:41:13.479Z,99007.66
2023-01-10T07:43:42.370Z,99011.06
2023-01-10T07:46:12.551Z,99027.91
2023-01-10T07:48:42.706Z,99034.69
2023-01-10T07:51:11.701Z,99039.75
2023-01-10T07:53:40.474Z,99048.19
2023-01-10T07:56:09.891Z,99051.53
2023-01-10T07:58:40.144Z,99058.34
2023-01-10T08:01:09.356Z,99065.94
2023-01-10T08:03:38.210Z,99070.19
2023-01-10T08:06:10.542Z,99075.25
2023-01-10T08:08:40.175Z,99082.78
2023-01-10T08:11:09.159Z,99090.44
2023-01-10T08:13:39.344Z,99092.09
2023-01-10T08:16:09.219Z,99103.13
2023-01-10T08:18:39.229Z,99104.84
2023-01-10T08:21:08.105Z,99102.31
2023-01-10T08:23:36.989Z,99113.28
2023-01-10T08:26:06.139Z,99124.25
2023-01-10T08:28:35.098Z,99123.44
2023-01-10T08:31:09.429Z,99131.00
2023-01-10T08:33:39.946Z,99135.22
2023-01-10T08:36:16.629Z,99132.72
2023-01-10T08:38:45.451Z,99141.16
2023-01-10T08:41:14.626Z,99141.16
2023-01-10T08:43:43.413Z,99144.53
2023-01-10T08:46:13.530Z,99153.81
2023-01-10T08:48:42.429Z,99161.41
2023-01-10T08:51:11.527Z,99163.09
2023-01-10T08:53:41.131Z,99162.28
2023-01-10T08:56:10.613Z,99179.19
2023-01-10T08:58:39.833Z,99177.47
2023-01-10T09:01:09.195Z,99192.69
2023-01-10T09:03:40.056Z,99189.34
2023-01-10T09:06:09.682Z,99195.28
2023-01-10T09:08:38.454Z,99209.59
2023-01-10T09:11:07.548Z,99216.34
2023-01-10T09:13:36.431Z,99233.25
2023-01-10T09:16:06.020Z,99230.75
2023-01-10T09:18:34.576Z,99235.81
2023-01-10T09:21:05.822Z,99246.81
2023-01-10T09:23:36.944Z,99251.88
2023-01-10T09:26:09.133Z,99262.91
2023-01-10T09:28:38.035Z,99265.44
2023-01-10T09:31:09.263Z,99258.69
2023-01-10T09:33:46.896Z,99259.56
2023-01-10T09:36:17.711Z,99261.22
2023-01-10T09:38:46.747Z,99260.41
2023-01-10T09:41:38.546Z,99260.44
2023-01-10T09:44:17.210Z,99267.19
2023-01-10T09:46:55.617Z,99273.94
2023-01-10T09:49:37.547Z,99276.47
2023-01-10T09:52:21.672Z,99278.19
2023-01-10T09:54:54.136Z,99283.22
2023-01-10T09:57:24.975Z,99281.53
2023-01-10T09:59:55.109Z,99285.78
2023-01-10T10:02:32.306Z,99283.25
2023-01-10T10:05:10.576Z,99283.28
2023-01-10T10:07:41.134Z,99288.34
2023-01-10T10:10:17.207Z,99282.41
2023-01-10T10:12:53.434Z,99290.03
2023-01-10T10:15:33.539Z,99298.47
2023-01-10T10:18:15.368Z,99291.72
2023-01-10T10:20:53.027Z,99295.94
2023-01-10T10:23:46.544Z,99302.69
2023-01-10T10:26:24.352Z,99305.22
2023-01-10T10:29:17.836Z,99302.75
2023-01-10T10:31:59.468Z,99303.56
2023-01-10T10:34:37.062Z,99308.63
2023-01-10T10:37:13.040Z,99304.41
2023-01-10T10:39:47.249Z,99312.88
2023-01-10T10:42:20.020Z,99310.38
2023-01-10T10:44:54.552Z,99312.06
2023-01-10T10:47:25.190Z,99323.09
2023-01-10T10:50:04.066Z,99318.84
2023-01-10T10:52:35.983Z,99328.22
2023-01-10T10:55:13.631Z,99327.34
2023-01-10T10:57:59.087Z,99330.78
2023-01-10T11:00:30.294Z,99329.06
2023-01-10T11:03:05.209Z,99329.94
2023-01-10T11:05:39.142Z,99331.66
2023-01-10T11:08:11.722Z,99339.28
2023-01-10T11:10:44.618Z,99343.53
2023-01-10T11:13:22.916Z,99336.81
2023-01-10T11:15:54.078Z,99334.31
2023-01-10T11:18:27.904Z,99342.78
2023-01-10T11:21:00.400Z,99340.28
2023-01-10T11:23:43.057Z,99336.09
2023-01-10T11:26:26.951Z,99334.41
2023-01-10T11:29:08.511Z,99333.63
2023-01-10T11:31:38.606Z,99339.56
2023-01-10T11:34:20.907Z,99341.28
2023-01-10T11:37:00.048Z,99343.88
2023-01-10T11:39:30.438Z,99343.03
2023-01-10T11:42:30.002Z,99343.03
2023-01-10T11:45:16.756Z,99346.44
2023-01-10T11:47:49.563Z,99358.28
2023-01-10T11:50:23.907Z,99365.03
2023-01-10T11:52:53.536Z,99351.53
2023-01-10T11:55:22.825Z,99357.47
2023-01-10T11:58:07.507Z,99351.56
2023-01-10T12:00:42.376Z,99366.78
2023-01-10T12:03:22.705Z,99363.44
2023-01-10T12:05:53.715Z,99361.75
2023-01-10T12:08:29.030Z,99366.81
2023-01-10T12:11:02.100Z,99370.19
2023-01-10T12:13:45.421Z,99370.19
2023-01-10T12:16:22.371Z,99367.69
2023-01-10T12:18:53.099Z,99367.72
2023-01-10T12:21:28.136Z,99371.13
2023-01-10T12:24:01.009Z,99387.19
2023-01-10T12:26:33.756Z,99393.09
2023-01-10T12:29:10.614Z,99391.44
2023-01-10T12:31:41.487Z,99401.59
2023-01-10T12:34:20.443Z,99407.56
2023-01-10T12:37:00.110Z,99405.88
2023-01-10T12:39:33.698Z,99409.28
2023-01-10T12:42:30.737Z,99421.09
2023-01-10T12:45:06.386Z,99419.41
2023-01-10T12:47:48.892Z,99412.69
2023-01-10T12:50:23.942Z,99424.53
2023-01-10T12:52:59.437Z,99424.53
2023-01-10T12:55:34.063Z,99427.91
2023-01-10T12:58:06.833Z,99437.22
2023-01-10T13:00:47.815Z,99431.25
2023-01-10T13:03:22.888Z,99447.31
2023-01-10T13:05:53.525Z,99443.13
2023-01-10T13:08:27.210Z,99449.03
2023-01-10T13:10:59.874Z,99449.91
2023-01-10T13:13:35.841Z,99447.38
2023-01-10T13:16:29.286Z,99452.47
2023-01-10T13:19:05.149Z,99458.41
2023-01-10T13:21:35.788Z,99455.09
2023-01-10T13:24:07.249Z,99460.16
2023-01-10T13:26:48.955Z,99470.31
2023-01-10T13:29:22.681Z,99467.75
2023-01-10T13:31:57.684Z,99472.81
2023-01-10T13:34:33.681Z,99473.63
2023-01-10T13:37:06.426Z,99482.09
2023-01-10T13:39:39.577Z,99481.25
2023-01-10T13:42:32.695Z,99474.47
2023-01-10T13:45:20.187Z,99482.97
2023-01-10T13:48:25.777Z,99498.16
2023-01-10T13:51:08.094Z,99497.31
2023-01-10T13:53:55.340Z,99497.34
2023-01-10T13:56:37.094Z,99493.94
2023-01-10T13:59:21.585Z,99499.81
2023-01-10T14:02:03.954Z,99497.28
2023-01-10T14:04:39.138Z,99499.81
2023-01-10T14:07:18.091Z,99505.72
2023-01-10T14:09:49.783Z,99503.09
2023-01-10T14:12:28.179Z,99517.47
2023-01-10T14:15:01.252Z,99513.25
2023-01-10T14:17:32.047Z,99512.41
2023-01-10T14:20:08.189Z,99509.84
2023-01-10T14:22:39.666Z,99525.00
2023-01-10T14:25:19.118Z,99528.41
2023-01-10T14:27:48.495Z,99530.03
2023-01-10T14:30:21.406Z,99525.72
2023-01-10T14:32:56.781Z,99532.47
2023-01-10T14:35:34.238Z,99545.19
2023-01-10T14:38:04.886Z,99556.13
2023-01-10T14:40:41.955Z,99566.28
2023-01-10T14:43:15.283Z,99564.56
2023-01-10T14:45:53.126Z,99567.94
2023-01-10T14:48:28.257Z,99571.25
2023-01-10T14:51:10.524Z,99573.78
2023-01-10T14:53:39.902Z,99570.38
2023-01-10T14:56:21.069Z,99581.34
2023-01-10T14:58:49.950Z,99589.75
2023-01-10T15:01:26.219Z,99592.22
2023-01-10T15:03:57.315Z,99591.41
2023-01-10T15:06:27.907Z,99592.22
2023-01-10T15:09:03.994Z,99602.41
2023-01-10T15:11:34.401Z,99601.56
2023-01-10T15:14:11.548Z,99604.97
2023-01-10T15:16:43.453Z,99598.22
2023-01-10T15:19:16.927Z,99604.91
2023-01-10T15:21:48.886Z,99611.69
2023-01-10T15:24:33.866Z,99618.44
2023-01-10T15:27:06.352Z,99616.75
2023-01-10T15:29:37.231Z,99622.66
2023-01-10T15:32:11.891Z,99626.84
2023-01-10T15:34:42.717Z,99621.78
2023-01-10T15:37:23.234Z,99631.97
2023-01-10T15:39:52.380Z,99631.97
2023-01-10T15:42:22.976Z,99642.13
2023-01-10T15:44:56.318Z,99648.91
2023-01-10T15:47:41.813Z,99657.34
2023-01-10T15:50:24.055Z,99657.34
2023-01-10T15:52:57.736Z,99664.09
2023-01-10T15:55:47.682Z,99666.59
2023-01-10T15:58:25.663Z,99670.81
2023-01-10T16:00:55.784Z,99662.28
2023-01-10T16:03:29.833Z,99669.94
2023-01-10T16:06:00.551Z,99675.81
2023-01-10T16:08:35.135Z,99676.63
2023-01-10T16:11:08.668Z,99680.00
2023-01-10T16:13:37.794Z,99684.22
2023-01-10T16:16:16.712Z,99687.50
2023-01-10T16:18:45.616Z,99688.31
2023-01-10T16:21:14.931Z,99684.91
2023-01-10T16:23:47.336Z,99698.41
2023-01-10T16:26:17.558Z,99703.44
2023-01-10T16:28:46.268Z,99704.22
2023-01-10T16:31:15.836Z,99709.28
2023-01-10T16:33:45.853Z,99711.81
2023-01-10T16:36:17.410Z,99726.16
2023-01-10T16:38:47.856Z,99724.44
2023-01-10T16:41:27.101Z,99727.81
2023-01-10T16:43:55.884Z,99734.56
2023-01-10T16:46:25.202Z,99746.38
2023-01-10T16:48:55.622Z,99737.09
2023-01-10T16:51:26.266Z,99732.84
2023-01-10T16:53:56.774Z,99732.88
2023-01-10T16:56:28.197Z,99743.06
2023-01-10T16:58:57.785Z,99746.44
2023-01-10T17:01:30.151Z,99752.38
2023-01-10T17:03:59.710Z,99751.50
2023-01-10T17:06:28.932Z,99752.31
2023-01-10T17:08:59.116Z,99759.91
2023-01-10T17:11:32.545Z,99759.91
2023-01-10T17:14:02.047Z,99754.91
2023-01-10T17:16:30.855Z,99764.19
2023-01-10T17:18:59.629Z,99761.69
2023-01-10T17:21:28.357Z,99767.59
2023-01-10T17:23:58.556Z,99771.00
2023-01-10T17:26:27.360Z,99767.66
2023-01-10T17:28:56.871Z,99766.78
2023-01-10T17:31:25.876Z,99778.59
2023-01-10T17:33:54.589Z,99779.44
2023-01-10T17:36:28.980Z,99793.72
2023-01-10T17:39:00.145Z,99793.72
2023-01-10T17:41:28.881Z,99796.19
2023-01-10T17:43:57.545Z,99800.41
2023-01-10T17:46:26.380Z,99805.44
2023-01-10T17:48:55.120Z,99815.53
2023-01-10T17:51:25.173Z,99812.09
2023-01-10T17:53:56.356Z,99815.38
2023-01-10T17:56:26.555Z,99815.34
2023-01-10T17:58:55.139Z,99819.47
2023-01-10T18:01:26.261Z,99803.38
2023-01-10T18:03:55.427Z,99810.09
2023-01-10T18:06:25.371Z,99820.16
2023-01-10T18:08:54.798Z,99805.66
2023-01-10T18:11:25.521Z,99811.59
2023-01-10T18:13:55.974Z,99813.25
2023-01-10T18:16:27.159Z,99816.56
2023-01-10T18:18:57.604Z,99816.50
2023-01-10T18:21:26.500Z,99813.16
2023-01-10T18:23:57.116Z,99823.28
2023-01-10T18:26:25.965Z,99821.63
2023-01-10T18:28:56.030Z,99828.47
2023-01-10T18:31:24.835Z,99833.56
2023-01-10T18:33:53.887Z,99840.41
2023-01-10T18:36:24.411Z,99840.50
2023-01-10T18:38:53.953Z,99840.53
2023-01-10T18:41:22.979Z,99835.47
2023-01-10T18:43:51.790Z,99838.84
2023-01-10T18:46:24.618Z,99837.09
2023-01-10T18:48:54.287Z,99837.09
2023-01-10T18:51:23.910Z,99842.97
2023-01-10T18:53:54.237Z,99837.03
2023-01-10T18:56:23.205Z,99837.91
2023-01-10T18:58:51.899Z,99837.88
2023-01-10T19:01:23.277Z,99842.06
2023-01-10T19:03:52.633Z,99843.69
2023-01-10T19:06:22.961Z,99840.28
2023-01-10T19:08:52.482Z,99846.97
2023-01-10T19:11:21.664Z,99845.28
2023-01-10T19:13:54.091Z,99850.34
2023-01-10T19:16:27.046Z,99843.53
2023-01-10T19:18:58.013Z,99841.81
2023-01-10T19:21:28.297Z,99848.53
2023-01-10T19:24:01.693Z,99855.31
2023-01-10T19:26:30.732Z,99871.38
2023-01-10T19:28:59.471Z,99859.53
2023-01-10T19:31:31.309Z,99851.06
2023-01-10T19:34:01.730Z,99865.47
2023-01-10T19:36:34.883Z,99867.94
2023-01-10T19:39:05.513Z,99871.31
2023-01-10T19:41:35.155Z,99883.13
2023-01-10T19:44:04.893Z,99894.97
2023-01-10T19:46:37.453Z,99894.06
2023-01-10T19:49:09.147Z,99881.34
2023-01-10T19:51:39.635Z,99880.47
2023-01-10T19:54:10.070Z,99879.53
2023-01-10T19:56:38.979Z,99890.44
2023-01-10T19:59:08.772Z,99893.81
2023-01-10T20:01:38.969Z,99895.50
2023-01-10T20:04:07.927Z,99892.19
2023-01-10T20:06:39.057Z,99905.69
2023-01-10T20:09:08.991Z,99903.97
2023-01-10T20:11:43.131Z,99898.78
2023-01-10T20:14:14.307Z,99909.81
2023-01-10T20:16:44.921Z,99906.47
2023-01-10T20:19:13.898Z,99912.34
2023-01-10T20:21:43.911Z,99917.41
2023-01-10T20:24:16.927Z,99906.47
2023-01-10T20:26:46.150Z,99913.28
2023-01-10T20:29:15.321Z,99919.13
2023-01-10T20:31:47.658Z,99918.22
2023-01-10T20:34:16.702Z,99924.09
2023-01-10T20:36:47.098Z,99919.03
2023-01-10T20:39:17.239Z,99920.69
2023-01-10T20:41:46.498Z,99918.97
2023-01-10T20:44:15.208Z,99919.78
2023-01-10T20:46:45.532Z,99917.19
2023-01-10T20:49:14.458Z,99908.75
2023-01-10T20:51:43.156Z,99918.88
2023-01-10T20:54:12.873Z,99922.25
2023-01-10T20:56:41.350Z,99921.41
2023-01-10T20:59:10.108Z,99920.53
2023-01-10T21:01:39.391Z,99923.81
2023-01-10T21:04:09.569Z,99914.50
2023-01-10T21:06:38.416Z,99922.94
2023-01-10T21:09:07.785Z,99917.81
2023-01-10T21:11:52.159Z,99922.06
2023-01-10T21:14:25.765Z,99920.25
2023-01-10T21:16:54.492Z,99925.31
2023-01-10T21:19:25.296Z,99921.91
2023-01-10T21:21:54.093Z,99925.22
2023-01-10T21:24:25.317Z,99923.44
2023-01-10T21:26:54.263Z,99925.97
2023-01-10T21:29:23.036Z,99930.16
2023-01-10T21:31:54.006Z,99931.88
2023-01-10T21:34:24.451Z,99930.16
2023-01-10T21:36:54.444Z,99930.09
2023-01-10T21:39:23.099Z,99938.50
2023-01-10T21:42:00.618Z,99933.38
2023-01-10T21:44:29.442Z,99941.75
2023-01-10T21:46:58.134Z,99940.06
2023-01-10T21:49:28.380Z,99942.53
2023-01-10T21:51:58.008Z,99938.34
2023-01-10T21:54:26.438Z,99942.63
2023-01-10T21:56:55.124Z,99932.56
2023-01-10T21:59:24.466Z,99946.09
2023-01-10T22:01:53.168Z,99952.81
2023-01-10T22:04:22.822Z,99952.81
2023-01-10T22:06:53.467Z,99956.22
2023-01-10T22:09:22.359Z,99952.81
2023-01-10T22:11:51.120Z,99949.44
2023-01-10T22:14:19.976Z,99940.97
2023-01-10T22:16:48.730Z,99941.84
2023-01-10T22:19:17.857Z,99941.84
2023-01-10T22:21:46.640Z,99936.78
2023-01-10T22:24:17.346Z,99938.50
2023-01-10T22:26:46.111Z,99936.81
2023-01-10T22:29:16.358Z,99938.50
2023-01-10T22:31:45.206Z,99945.22
2023-01-10T22:34:14.160Z,99949.41
2023-01-10T22:36:43.061Z,99945.22
2023-01-10T22:39:12.195Z,99940.16
2023-01-10T22:41:42.792Z,99933.28
2023-01-10T22:44:19.697Z,99932.47
2023-01-10T22:46:52.101Z,99929.94
2023-01-10T22:49:21.527Z,99941.72
2023-01-10T22:51:50.330Z,99935.00
2023-01-10T22:54:19.138Z,99937.53
2023-01-10T22:56:49.332Z,99929.06
2023-01-10T23:01:56.793Z,99922.28
2023-01-10T23:04:25.576Z,99927.34
2023-01-10T23:06:56.924Z,99923.94
2023-01-10T23:09:25.683Z,99915.47
2023-01-10T23:11:55.767Z,99918.78
2023-01-10T23:14:24.545Z,99927.19
2023-01-10T23:16:53.167Z,99925.50
2023-01-10T23:19:21.908Z,99913.69
2023-01-10T23:21:51.586Z,99908.63
2023-01-10T23:24:20.112Z,99907.75
2023-01-10T23:26:51.293Z,99908.53
2023-01-10T23:29:21.432Z,99917.81
2023-01-10T23:31:51.259Z,99916.91
2023-01-10T23:34:19.950Z,99915.16
2023-01-10T23:36:48.763Z,99913.41
2023-01-10T23:39:19.304Z,99901.53
2023-01-10T23:41:48.124Z,99897.25
2023-01-10T23:44:16.963Z,99898.91
2023-01-10T23:46:47.184Z,99905.69
2023-01-10T23:49:15.934Z,99896.38
2023-01-10T23:51:44.522Z,99899.69
2023-01-10T23:54:13.495Z,99905.59
2023-01-10T23:56:42.115Z,99900.50
2023-01-10T23:59:10.835Z,99900.50
